createdAt,value
2018-11-25T00:00:50.823Z,123.50
2018-11-25T00:03:23.880Z,122.70
2018-11-25T00:05:55.805Z,132.27
2018-11-25T00:08:25.684Z,136.10
2018-11-25T00:10:55.124Z,142.73
2018-11-25T00:13:24.619Z,137.27
2018-11-25T00:15:54.015Z,135.63
2018-11-25T00:18:23.222Z,143.20
2018-11-25T00:20:54.036Z,134.93
2018-11-25T00:23:23.462Z,142.40
2018-11-25T00:25:52.956Z,137.17
2018-11-25T00:28:22.177Z,141.23
2018-11-25T00:30:51.424Z,143.83
2018-11-25T00:33:20.739Z,158.27
2018-11-25T00:35:49.603Z,152.03
2018-11-25T00:38:18.330Z,165.33
2018-11-25T00:40:47.361Z,137.40
2018-11-25T00:43:16.308Z,137.13
2018-11-25T00:45:45.150Z,134.37
2018-11-25T00:48:14.414Z,139.73
2018-11-25T00:50:43.729Z,131.60
2018-11-25T00:53:13.813Z,137.03
2018-11-25T00:55:43.284Z,134.13
2018-11-25T00:58:12.358Z,145.23
2018-11-25T01:00:41.481Z,142.30
2018-11-25T01:03:10.799Z,147.40
2018-11-25T01:05:40.078Z,171.80
2018-11-25T01:08:09.218Z,158.37
2018-11-25T01:10:38.374Z,174.07
2018-11-25T01:13:11.075Z,149.40
2018-11-25T01:15:40.441Z,157.03
2018-11-25T01:18:09.348Z,164.87
2018-11-25T01:20:38.740Z,164.27
2018-11-25T01:23:08.135Z,149.60
2018-11-25T01:25:38.051Z,140.43
2018-11-25T01:28:07.288Z,147.10
2018-11-25T01:30:36.384Z,169.20
2018-11-25T01:33:05.609Z,141.83
2018-11-25T01:35:34.873Z,134.27
2018-11-25T01:38:04.171Z,150.20
2018-11-25T01:40:33.269Z,147.20
2018-11-25T01:43:02.792Z,145.37
2018-11-25T01:45:32.017Z,144.77
2018-11-25T01:48:01.424Z,158.97
2018-11-25T01:50:30.808Z,166.53
2018-11-25T01:52:59.983Z,139.63
2018-11-25T01:55:29.323Z,158.57
2018-11-25T01:57:58.445Z,162.90
2018-11-25T02:00:27.783Z,166.47
2018-11-25T02:03:01.364Z,181.00
2018-11-25T02:05:30.906Z,173.00
2018-11-25T02:08:02.981Z,182.43
2018-11-25T02:10:32.218Z,183.77
2018-11-25T02:13:01.710Z,195.07
2018-11-25T02:15:32.474Z,214.53
2018-11-25T02:18:01.759Z,222.07
2018-11-25T02:20:31.202Z,225.63
2018-11-25T02:23:01.915Z,230.97
2018-11-25T02:25:31.045Z,225.47
2018-11-25T02:28:00.824Z,222.93
2018-11-25T02:30:29.846Z,203.20
2018-11-25T02:32:58.899Z,202.27
2018-11-25T02:35:28.443Z,193.90
2018-11-25T02:37:57.532Z,184.73
2018-11-25T02:40:26.650Z,205.73
2018-11-25T02:42:55.677Z,187.13
2018-11-25T02:45:25.247Z,192.53
2018-11-25T02:47:54.933Z,174.40
2018-11-25T02:50:25.987Z,154.77
2018-11-25T02:52:55.609Z,177.97
2018-11-25T02:55:25.059Z,158.73
2018-11-25T02:57:54.219Z,155.23
2018-11-25T03:00:23.483Z,182.10
2018-11-25T03:02:54.953Z,170.77
2018-11-25T03:05:24.386Z,175.17
2018-11-25T03:07:53.853Z,178.00
2018-11-25T03:10:23.389Z,160.53
2018-11-25T03:12:52.623Z,175.10
2018-11-25T03:15:21.806Z,170.47
2018-11-25T03:17:50.928Z,158.13
2018-11-25T03:20:20.263Z,162.90
2018-11-25T03:22:49.551Z,175.23
2018-11-25T03:25:19.659Z,161.87
2018-11-25T03:27:49.002Z,169.67
2018-11-25T03:30:18.861Z,174.03
2018-11-25T03:32:52.291Z,191.93
2018-11-25T03:35:25.990Z,189.40
2018-11-25T03:37:55.308Z,175.43
2018-11-25T03:40:24.403Z,176.53
2018-11-25T03:42:53.722Z,175.90
2018-11-25T03:45:24.405Z,179.57
2018-11-25T03:47:53.484Z,177.97
2018-11-25T03:50:22.653Z,188.60
2018-11-25T03:52:52.243Z,178.20
2018-11-25T03:55:21.518Z,171.00
2018-11-25T03:57:50.711Z,204.93
2018-11-25T04:00:19.864Z,196.20
2018-11-25T04:02:49.116Z,205.97
2018-11-25T04:05:18.373Z,202.17
2018-11-25T04:07:47.887Z,185.77
2018-11-25T04:10:17.999Z,179.80
2018-11-25T04:12:47.171Z,168.10
2018-11-25T04:15:16.632Z,201.97
2018-11-25T04:17:45.727Z,202.53
2018-11-25T04:20:16.482Z,194.63
2018-11-25T04:22:45.835Z,207.10
2018-11-25T04:25:15.199Z,199.60
2018-11-25T04:27:44.852Z,162.13
2018-11-25T04:30:17.635Z,177.33
2018-11-25T04:32:47.667Z,186.90
2018-11-25T04:35:17.459Z,189.53
2018-11-25T04:37:47.337Z,186.57
2018-11-25T04:40:16.993Z,208.03
2018-11-25T04:42:47.253Z,222.43
2018-11-25T04:45:16.813Z,231.60
2018-11-25T04:47:46.120Z,230.77
2018-11-25T04:50:15.964Z,223.43
2018-11-25T04:52:45.367Z,228.67
2018-11-25T04:55:14.667Z,223.23
2018-11-25T04:57:47.765Z,233.50
2018-11-25T05:00:17.837Z,224.93
2018-11-25T05:02:46.999Z,247.43
2018-11-25T05:05:16.469Z,257.90
2018-11-25T05:07:45.995Z,257.53
2018-11-25T05:10:15.626Z,254.07
2018-11-25T05:12:45.032Z,250.10
2018-11-25T05:15:15.863Z,262.07
2018-11-25T05:17:45.305Z,263.93
2018-11-25T05:20:14.673Z,283.97
2018-11-25T05:22:44.319Z,292.33
2018-11-25T05:25:14.819Z,288.17
2018-11-25T05:27:44.360Z,284.80
2018-11-25T05:30:15.492Z,237.67
2018-11-25T05:32:44.811Z,278.23
2018-11-25T05:35:17.429Z,274.37
2018-11-25T05:37:46.802Z,293.67
2018-11-25T05:40:16.598Z,287.60
2018-11-25T05:42:46.144Z,274.60
2018-11-25T05:45:15.819Z,275.90
2018-11-25T05:47:45.393Z,254.20
2018-11-25T05:50:14.932Z,185.80
2018-11-25T05:52:43.903Z,202.10
2018-11-25T05:55:13.499Z,209.40
2018-11-25T05:57:42.523Z,204.63
2018-11-25T06:00:16.614Z,200.30
2018-11-25T06:02:45.850Z,187.23
2018-11-25T06:05:15.350Z,165.07
2018-11-25T06:07:44.661Z,168.53
2018-11-25T06:10:13.857Z,171.40
2018-11-25T06:12:42.939Z,167.87
2018-11-25T06:15:12.048Z,159.33
2018-11-25T06:17:41.233Z,149.47
2018-11-25T06:20:11.091Z,150.83
2018-11-25T06:22:40.584Z,154.87
2018-11-25T06:25:11.094Z,144.20
2018-11-25T06:27:40.122Z,155.23
2018-11-25T06:30:10.303Z,153.10
2018-11-25T06:32:39.118Z,188.13
2018-11-25T06:35:08.273Z,154.83
2018-11-25T06:37:36.999Z,163.00
2018-11-25T06:40:07.470Z,166.77
2018-11-25T06:42:35.961Z,141.13
2018-11-25T06:45:05.104Z,131.57
2018-11-25T06:47:33.720Z,133.33
2018-11-25T06:50:02.626Z,136.73
2018-11-25T06:52:31.386Z,125.03
2018-11-25T06:55:00.101Z,121.47
2018-11-25T06:57:29.117Z,123.90
2018-11-25T06:59:57.675Z,121.67
2018-11-25T07:02:26.297Z,119.47
2018-11-25T07:04:54.993Z,119.70
2018-11-25T07:07:23.911Z,120.73
2018-11-25T07:09:52.186Z,133.80
2018-11-25T07:12:20.784Z,126.40
2018-11-25T07:14:49.899Z,121.33
2018-11-25T07:17:19.871Z,135.10
2018-11-25T07:19:48.555Z,126.67
2018-11-25T07:22:17.454Z,111.83
2018-11-25T07:24:45.836Z,121.90
2018-11-25T07:27:14.532Z,120.03
2018-11-25T07:29:43.017Z,115.10
2018-11-25T07:32:11.911Z,122.23
2018-11-25T07:34:40.688Z,125.13
2018-11-25T07:37:09.495Z,113.07
2018-11-25T07:39:38.197Z,202.40
2018-11-25T07:42:06.911Z,123.47
2018-11-25T07:44:35.535Z,114.17
2018-11-25T07:47:05.302Z,101.40
2018-11-25T07:49:34.869Z,111.33
2018-11-25T07:52:07.163Z,106.70
2018-11-25T07:54:35.859Z,98.77
2018-11-25T07:57:04.468Z,95.97
2018-11-25T07:59:33.428Z,88.13
2018-11-25T08:02:02.568Z,101.90
2018-11-25T08:04:33.625Z,95.23
2018-11-25T08:07:02.323Z,96.83
2018-11-25T08:09:31.399Z,101.37
2018-11-25T08:12:00.379Z,94.33
2018-11-25T08:14:29.613Z,105.60
2018-11-25T08:16:57.991Z,104.40
2018-11-25T08:19:26.779Z,82.63
2018-11-25T08:21:55.264Z,90.50
2018-11-25T08:24:24.090Z,79.53
2018-11-25T08:26:53.084Z,66.83
2018-11-25T08:29:22.019Z,86.50
2018-11-25T08:31:50.835Z,73.40
2018-11-25T08:34:19.331Z,79.17
2018-11-25T08:36:47.950Z,95.67
2018-11-25T08:39:16.426Z,97.70
2018-11-25T08:41:45.917Z,85.60
2018-11-25T08:44:14.478Z,105.43
2018-11-25T08:46:42.848Z,96.20
2018-11-25T08:49:11.803Z,111.28
2018-11-25T08:51:40.797Z,96.60
2018-11-25T08:54:09.889Z,104.23
2018-11-25T08:56:38.759Z,105.73
2018-11-25T08:59:08.073Z,99.73
2018-11-25T09:01:36.958Z,97.10
2018-11-25T09:04:06.109Z,91.87
2018-11-25T09:06:35.236Z,90.00
2018-11-25T09:09:05.938Z,94.90
2018-11-25T09:11:35.201Z,105.87
2018-11-25T09:14:04.757Z,111.13
2018-11-25T09:16:33.945Z,117.70
2018-11-25T09:19:03.800Z,116.80
2018-11-25T09:21:32.385Z,124.30
2018-11-25T09:24:01.512Z,118.33
2018-11-25T09:26:29.910Z,145.27
2018-11-25T09:29:02.204Z,176.27
2018-11-25T09:31:31.314Z,154.83
2018-11-25T09:34:00.804Z,163.77
2018-11-25T09:36:29.518Z,163.00
2018-11-25T09:38:58.344Z,142.43
2018-11-25T09:41:27.269Z,133.47
2018-11-25T09:43:56.349Z,138.57
2018-11-25T09:46:24.671Z,135.93
2018-11-25T09:48:53.764Z,147.60
2018-11-25T09:51:22.999Z,146.47
2018-11-25T09:53:53.275Z,170.63
2018-11-25T09:56:22.196Z,144.27
2018-11-25T09:58:51.776Z,174.50
2018-11-25T10:01:20.691Z,166.10
2018-11-25T10:03:49.646Z,178.73
2018-11-25T10:06:18.345Z,168.40
2018-11-25T10:08:48.169Z,168.97
2018-11-25T10:11:17.006Z,210.63
2018-11-25T10:13:45.333Z,204.57
2018-11-25T10:16:14.098Z,171.30
2018-11-25T10:18:42.789Z,180.80
2018-11-25T10:21:10.868Z,186.47
2018-11-25T10:23:39.727Z,163.70
2018-11-25T10:26:08.401Z,170.30
2018-11-25T10:28:36.877Z,153.57
2018-11-25T10:31:05.434Z,156.83
2018-11-25T10:33:34.082Z,181.73
2018-11-25T10:36:04.595Z,149.63
2018-11-25T10:38:31.367Z,133.30
2018-11-25T10:41:00.809Z,124.97
2018-11-25T10:43:30.463Z,132.40
2018-11-25T10:45:59.772Z,101.77
2018-11-25T10:48:28.768Z,79.10
2018-11-25T10:50:57.781Z,70.07
2018-11-25T10:53:26.795Z,72.47
2018-11-25T10:55:55.915Z,83.23
2018-11-25T10:58:25.178Z,84.23
2018-11-25T11:00:55.441Z,82.07
2018-11-25T11:03:29.645Z,91.57
2018-11-25T11:06:04.001Z,74.10
2018-11-25T11:08:32.917Z,83.27
2018-11-25T11:11:01.796Z,88.70
2018-11-25T11:13:30.351Z,70.33
2018-11-25T11:15:59.290Z,83.77
2018-11-25T11:18:28.051Z,66.20
2018-11-25T11:20:58.038Z,74.67
2018-11-25T11:23:27.170Z,58.20
2018-11-25T11:25:56.114Z,73.23
2018-11-25T11:28:24.657Z,50.37
2018-11-25T11:30:53.270Z,59.13
2018-11-25T11:33:22.367Z,93.37
2018-11-25T11:35:51.227Z,65.33
2018-11-25T11:38:20.168Z,76.87
2018-11-25T11:40:48.807Z,65.60
2018-11-25T11:43:17.745Z,76.43
2018-11-25T11:45:46.597Z,84.53
2018-11-25T11:48:15.362Z,85.30
2018-11-25T11:50:44.116Z,70.63
2018-11-25T11:53:13.382Z,80.30
2018-11-25T11:55:43.599Z,86.90
2018-11-25T11:58:12.566Z,99.00
2018-11-25T12:00:41.102Z,86.33
2018-11-25T12:03:12.018Z,79.80
2018-11-25T12:05:40.824Z,87.23
2018-11-25T12:08:09.482Z,93.10
2018-11-25T12:10:38.128Z,85.43
2018-11-25T12:13:06.672Z,80.70
2018-11-25T12:15:35.840Z,81.50
2018-11-25T12:18:04.607Z,80.13
2018-11-25T12:20:33.533Z,78.37
2018-11-25T12:23:02.165Z,72.63
2018-11-25T12:25:30.395Z,71.70
2018-11-25T12:27:58.681Z,67.30
2018-11-25T12:30:26.979Z,60.23
2018-11-25T12:32:55.188Z,53.37
2018-11-25T12:35:23.772Z,67.97
2018-11-25T12:37:52.192Z,62.10
2018-11-25T12:40:21.840Z,57.77
2018-11-25T12:42:51.720Z,51.57
2018-11-25T12:45:20.173Z,60.47
2018-11-25T12:47:48.812Z,81.33
2018-11-25T12:50:17.896Z,77.37
2018-11-25T12:52:46.787Z,82.80
2018-11-25T12:55:15.823Z,95.73
2018-11-25T12:57:44.433Z,112.07
2018-11-25T13:00:15.134Z,109.87
2018-11-25T13:02:43.705Z,91.37
2018-11-25T13:05:12.357Z,59.17
2018-11-25T13:07:40.718Z,59.70
2018-11-25T13:10:09.062Z,54.23
2018-11-25T13:12:37.900Z,59.63
2018-11-25T13:15:07.528Z,57.93
2018-11-25T13:17:36.140Z,66.13
2018-11-25T13:20:05.905Z,90.57
2018-11-25T13:22:34.332Z,75.53
2018-11-25T13:25:02.853Z,55.33
2018-11-25T13:27:31.323Z,57.27
2018-11-25T13:30:06.447Z,58.50
2018-11-25T13:32:34.856Z,59.93
2018-11-25T13:35:03.647Z,64.10
2018-11-25T13:37:32.110Z,67.20
2018-11-25T13:40:00.713Z,64.47
2018-11-25T13:42:29.382Z,65.83
2018-11-25T13:44:57.034Z,64.40
2018-11-25T13:47:25.424Z,61.97
2018-11-25T13:49:53.789Z,45.90
2018-11-25T13:52:22.481Z,42.50
2018-11-25T13:54:51.043Z,45.47
2018-11-25T13:57:22.641Z,52.43
2018-11-25T13:59:51.188Z,43.70
2018-11-25T14:02:19.530Z,45.57
2018-11-25T14:04:47.913Z,49.40
2018-11-25T14:07:16.198Z,54.30
2018-11-25T14:09:44.511Z,55.93
2018-11-25T14:12:13.187Z,53.90
2018-11-25T14:14:41.873Z,57.73
2018-11-25T14:17:10.249Z,51.67
2018-11-25T14:19:38.738Z,47.97
2018-11-25T14:22:07.356Z,46.43
2018-11-25T14:24:35.774Z,47.07
2018-11-25T14:27:04.783Z,54.40
2018-11-25T14:29:33.163Z,55.93
2018-11-25T14:32:01.792Z,52.10
2018-11-25T14:34:30.291Z,54.53
2018-11-25T14:36:58.909Z,49.33
2018-11-25T14:39:27.519Z,48.63
2018-11-25T14:41:56.034Z,56.03
2018-11-25T14:44:24.479Z,43.30
2018-11-25T14:46:52.962Z,52.13
2018-11-25T14:49:22.402Z,56.50
2018-11-25T14:51:50.543Z,50.87
2018-11-25T14:54:18.743Z,55.70
2018-11-25T14:56:47.012Z,47.83
2018-11-25T14:59:15.238Z,45.30
2018-11-25T15:01:43.797Z,48.50
2018-11-25T15:04:12.271Z,39.33
2018-11-25T15:06:41.498Z,46.13
2018-11-25T15:09:10.271Z,43.37
2018-11-25T15:11:40.177Z,41.77
2018-11-25T15:14:08.373Z,45.67
2018-11-25T15:16:36.738Z,41.30
2018-11-25T15:19:05.606Z,41.73
2018-11-25T15:21:33.903Z,43.77
2018-11-25T15:24:02.435Z,40.30
2018-11-25T15:26:31.038Z,43.63
2018-11-25T15:28:59.528Z,48.20
2018-11-25T15:31:27.748Z,45.00
2018-11-25T15:33:56.010Z,44.27
2018-11-25T15:36:24.498Z,39.27
2018-11-25T15:38:53.051Z,40.47
2018-11-25T15:41:21.516Z,46.37
2018-11-25T15:43:49.929Z,41.10
2018-11-25T15:46:17.998Z,46.20
2018-11-25T15:48:46.204Z,44.40
2018-11-25T15:51:14.518Z,45.03
2018-11-25T15:56:29.114Z,47.27
2018-11-25T15:58:59.023Z,43.93
2018-11-25T16:01:28.295Z,47.00
2018-11-25T16:03:57.470Z,45.93
2018-11-25T16:06:28.459Z,52.67
2018-11-25T16:08:59.536Z,45.83
2018-11-25T16:11:28.803Z,42.77
2018-11-25T16:13:57.847Z,47.75
2018-11-25T16:16:30.965Z,42.07
2018-11-25T16:19:00.520Z,42.00
2018-11-25T16:21:29.577Z,40.67
2018-11-25T16:23:58.550Z,37.97
2018-11-25T16:26:29.769Z,36.53
2018-11-25T16:28:59.819Z,44.33
2018-11-25T16:31:29.443Z,42.27
2018-11-25T16:34:00.760Z,45.27
2018-11-25T16:36:31.910Z,42.83
2018-11-25T16:39:03.083Z,39.33
2018-11-25T16:41:32.849Z,41.63
2018-11-25T16:44:01.644Z,43.37
2018-11-25T16:46:30.500Z,42.27
2018-11-25T16:48:59.977Z,39.80
2018-11-25T16:51:36.141Z,45.87
2018-11-25T16:54:05.454Z,48.80
2018-11-25T16:56:37.549Z,50.47
2018-11-25T16:59:06.821Z,43.43
2018-11-25T17:01:36.235Z,42.87
2018-11-25T17:04:05.461Z,50.93
2018-11-25T17:06:34.839Z,50.43
2018-11-25T17:09:03.973Z,47.53
2018-11-25T17:11:32.598Z,48.27
2018-11-25T17:14:04.637Z,43.73
2018-11-25T17:16:33.865Z,51.43
2018-11-25T17:19:05.139Z,49.13
2018-11-25T17:21:33.906Z,60.53
2018-11-25T17:24:02.767Z,50.00
2018-11-25T17:26:31.445Z,46.30
2018-11-25T17:29:00.165Z,43.63
2018-11-25T17:31:29.198Z,54.20
2018-11-25T17:33:57.970Z,44.70
2018-11-25T17:36:28.053Z,52.63
2018-11-25T17:38:56.907Z,50.23
2018-11-25T17:41:26.205Z,51.50
2018-11-25T17:43:55.445Z,55.90
2018-11-25T17:46:24.675Z,55.37
2018-11-25T17:48:54.059Z,52.40
2018-11-25T17:51:24.499Z,56.20
2018-11-25T17:53:53.769Z,49.30
2018-11-25T17:56:22.889Z,48.57
2018-11-25T17:58:52.398Z,54.20
2018-11-25T18:01:21.735Z,56.47
2018-11-25T18:03:50.801Z,60.87
2018-11-25T18:06:19.835Z,56.40
2018-11-25T18:08:49.032Z,59.47
2018-11-25T18:11:17.919Z,51.17
2018-11-25T18:13:46.541Z,52.93
2018-11-25T18:16:15.221Z,56.27
2018-11-25T18:18:45.611Z,51.00
2018-11-25T18:21:15.939Z,52.17
2018-11-25T18:23:44.988Z,44.97
2018-11-25T18:26:14.459Z,45.13
2018-11-25T18:28:43.643Z,44.07
2018-11-25T18:31:12.522Z,42.43
2018-11-25T18:33:41.195Z,44.20
2018-11-25T18:36:11.161Z,47.20
2018-11-25T18:38:40.263Z,42.97
2018-11-25T18:41:09.589Z,40.60
2018-11-25T18:43:38.741Z,51.87
2018-11-25T18:46:07.814Z,49.33
2018-11-25T18:48:37.862Z,46.07
2018-11-25T18:51:06.919Z,45.27
2018-11-25T18:53:35.688Z,47.70
2018-11-25T18:56:04.574Z,43.43
2018-11-25T18:58:33.921Z,49.43
2018-11-25T19:01:08.743Z,43.30
2018-11-25T19:03:37.666Z,46.70
2018-11-25T19:06:06.670Z,42.70
2018-11-25T19:08:36.258Z,34.53
2018-11-25T19:11:05.800Z,47.37
2018-11-25T19:13:35.500Z,43.70
2018-11-25T19:16:05.289Z,46.77
2018-11-25T19:18:35.670Z,52.73
2018-11-25T19:21:04.752Z,49.63
2018-11-25T19:23:33.996Z,48.60
2018-11-25T19:26:03.393Z,47.23
2018-11-25T19:28:32.680Z,50.90
2018-11-25T19:31:05.412Z,52.47
2018-11-25T19:33:34.813Z,59.17
2018-11-25T19:36:05.745Z,60.07
2018-11-25T19:38:34.530Z,54.53
2018-11-25T19:41:03.606Z,48.50
2018-11-25T19:43:32.553Z,58.70
2018-11-25T19:46:01.473Z,56.60
2018-11-25T19:48:30.849Z,62.13
2018-11-25T19:50:59.582Z,59.77
2018-11-25T19:53:28.978Z,60.87
2018-11-25T19:55:58.298Z,51.27
2018-11-25T19:58:27.530Z,61.57
2018-11-25T20:00:56.413Z,98.43
2018-11-25T20:03:25.343Z,65.57
2018-11-25T20:05:54.353Z,53.50
2018-11-25T20:08:23.080Z,58.13
2018-11-25T20:10:52.353Z,65.23
2018-11-25T20:13:21.239Z,56.50
2018-11-25T20:15:50.393Z,66.00
2018-11-25T20:18:19.601Z,67.67
2018-11-25T20:22:57.189Z,65.70
2018-11-25T20:25:26.257Z,73.73
2018-11-25T20:27:56.825Z,72.07
2018-11-25T20:30:26.451Z,64.00
2018-11-25T20:33:00.855Z,70.70
2018-11-25T20:35:30.425Z,65.60
2018-11-25T20:38:04.387Z,68.37
2018-11-25T20:40:33.982Z,80.43
2018-11-25T20:43:03.666Z,68.27
2018-11-25T20:45:39.318Z,70.63
2018-11-25T20:48:07.667Z,73.83
2018-11-25T20:50:36.422Z,76.43
2018-11-25T20:53:10.854Z,71.93
2018-11-25T20:55:39.275Z,85.37
2018-11-25T20:58:08.775Z,78.87
2018-11-25T21:00:38.016Z,76.70
2018-11-25T21:03:07.965Z,77.87
2018-11-25T21:05:36.536Z,81.20
2018-11-25T21:08:05.856Z,75.40
2018-11-25T21:10:34.489Z,77.30
2018-11-25T21:13:03.109Z,77.03
2018-11-25T21:15:31.908Z,87.17
2018-11-25T21:18:00.574Z,84.90
2018-11-25T21:20:28.960Z,81.07
2018-11-25T21:22:57.448Z,73.50
2018-11-25T21:25:26.384Z,70.83
2018-11-25T21:27:55.464Z,74.80
2018-11-25T21:30:25.134Z,75.70
2018-11-25T21:32:54.886Z,75.57
2018-11-25T21:35:23.907Z,77.13
2018-11-25T21:37:53.480Z,89.40
2018-11-25T21:40:23.492Z,74.17
2018-11-25T21:42:53.088Z,84.27
2018-11-25T21:45:24.131Z,82.77
2018-11-25T21:47:56.054Z,74.97
2018-11-25T21:50:26.189Z,88.30
2018-11-25T21:52:54.267Z,88.17
2018-11-25T21:55:22.610Z,87.70
2018-11-25T21:57:50.868Z,75.67
2018-11-25T22:00:20.208Z,88.97
2018-11-25T22:02:48.388Z,64.70
2018-11-25T22:05:16.716Z,89.90
2018-11-25T22:07:45.782Z,86.17
2018-11-25T22:10:14.783Z,87.07
2018-11-25T22:12:43.233Z,87.50
2018-11-25T22:15:12.666Z,78.40
2018-11-25T22:17:40.880Z,78.77
2018-11-25T22:20:09.624Z,59.40
2018-11-25T22:22:41.537Z,69.33
2018-11-25T22:25:10.312Z,84.43
2018-11-25T22:27:38.994Z,90.43
2018-11-25T22:30:11.681Z,97.77
2018-11-25T22:32:40.078Z,79.10
2018-11-25T22:35:09.424Z,78.23
2018-11-25T22:37:37.697Z,96.77
2018-11-25T22:40:07.037Z,80.47
2018-11-25T22:42:35.436Z,87.37
2018-11-25T22:45:03.952Z,98.03
2018-11-25T22:47:32.236Z,77.60
2018-11-25T22:50:00.547Z,88.23
2018-11-25T22:52:29.220Z,79.93
2018-11-25T22:54:57.587Z,91.93
2018-11-25T22:57:26.066Z,84.23
2018-11-25T22:59:54.307Z,83.23
2018-11-25T23:02:22.466Z,87.23
2018-11-25T23:04:56.133Z,96.73
2018-11-25T23:07:24.648Z,84.90
2018-11-25T23:09:52.797Z,93.40
2018-11-25T23:12:21.049Z,91.50
2018-11-25T23:14:49.200Z,94.93
2018-11-25T23:17:17.579Z,83.00
2018-11-25T23:19:45.872Z,84.70
2018-11-25T23:22:14.035Z,92.13
2018-11-25T23:24:42.320Z,83.53
2018-11-25T23:27:10.592Z,78.30
2018-11-25T23:29:38.839Z,81.63
2018-11-25T23:32:06.981Z,78.20
2018-11-25T23:34:35.151Z,82.40
2018-11-25T23:37:03.493Z,71.50
2018-11-25T23:39:31.916Z,62.70
2018-11-25T23:42:00.187Z,83.23
2018-11-25T23:44:28.434Z,72.03
2018-11-25T23:46:57.863Z,74.83
2018-11-25T23:49:26.078Z,80.57
2018-11-25T23:51:54.337Z,76.50
2018-11-25T23:54:22.585Z,81.00
2018-11-25T23:56:54.479Z,80.27
2018-11-25T23:59:22.761Z,73.70
